createdAt,value
2017-11-05T00:00:01.043Z,17.40
2017-11-05T00:02:28.520Z,17.37
2017-11-05T00:04:56.855Z,15.33
2017-11-05T00:07:24.369Z,17.50
2017-11-05T00:09:51.846Z,14.50
2017-11-05T00:12:19.415Z,14.57
2017-11-05T00:14:46.929Z,13.03
2017-11-05T00:17:14.406Z,18.03
2017-11-05T00:19:41.969Z,16.37
2017-11-05T00:22:09.448Z,19.73
2017-11-05T00:24:37.685Z,13.30
2017-11-05T00:27:05.242Z,14.83
2017-11-05T00:29:32.708Z,12.60
2017-11-05T00:32:00.232Z,13.73
2017-11-05T00:34:27.969Z,10.70
2017-11-05T00:36:55.424Z,10.60
2017-11-05T00:39:22.893Z,13.00
2017-11-05T00:41:50.525Z,12.20
2017-11-05T00:44:18.753Z,10.00
2017-11-05T00:46:46.258Z,13.50
2017-11-05T00:49:13.816Z,13.00
2017-11-05T00:51:41.328Z,13.40
2017-11-05T00:54:08.838Z,12.57
2017-11-05T00:56:36.414Z,12.37
2017-11-05T00:59:04.653Z,12.77
2017-11-05T01:01:32.109Z,16.60
2017-11-05T01:04:00.426Z,13.33
2017-11-05T01:06:28.674Z,14.43
2017-11-05T01:08:56.161Z,13.77
2017-11-05T01:11:23.721Z,13.53
2017-11-05T01:13:51.178Z,13.50
2017-11-05T01:16:18.651Z,13.07
2017-11-05T01:18:46.981Z,14.60
2017-11-05T01:21:14.449Z,9.93
2017-11-05T01:23:41.936Z,13.20
2017-11-05T01:26:10.251Z,12.53
2017-11-05T01:28:37.704Z,10.33
2017-11-05T01:31:05.942Z,11.00
2017-11-05T01:33:33.426Z,10.60
2017-11-05T01:36:00.908Z,11.63
2017-11-05T01:38:28.374Z,11.27
2017-11-05T01:40:56.620Z,11.87
2017-11-05T01:43:24.089Z,13.83
2017-11-05T01:45:51.547Z,9.37
2017-11-05T01:48:19.047Z,9.57
2017-11-05T01:50:46.517Z,10.13
2017-11-05T01:53:14.781Z,11.67
2017-11-05T01:55:42.238Z,10.20
2017-11-05T01:58:09.713Z,9.63
2017-11-05T02:00:37.194Z,12.57
2017-11-05T02:03:04.716Z,10.00
2017-11-05T02:05:33.084Z,11.80
2017-11-05T02:08:00.552Z,9.80
2017-11-05T02:10:28.762Z,9.13
2017-11-05T02:12:56.243Z,9.40
2017-11-05T02:15:24.486Z,8.57
2017-11-05T02:17:51.985Z,9.93
2017-11-05T02:20:20.260Z,11.00
2017-11-05T02:22:47.765Z,10.80
2017-11-05T02:25:15.265Z,11.33
2017-11-05T02:27:42.752Z,9.67
2017-11-05T02:30:10.977Z,11.33
2017-11-05T02:32:38.474Z,9.20
2017-11-05T02:35:05.945Z,7.90
2017-11-05T02:37:33.430Z,8.70
2017-11-05T02:40:00.904Z,14.20
2017-11-05T02:42:29.190Z,13.93
2017-11-05T02:44:57.434Z,9.90
2017-11-05T02:47:25.025Z,11.50
2017-11-05T02:49:52.480Z,12.80
2017-11-05T02:52:20.715Z,9.70
2017-11-05T02:54:48.214Z,12.53
2017-11-05T02:57:15.724Z,11.97
2017-11-05T02:59:43.959Z,12.30
2017-11-05T03:02:12.253Z,10.37
2017-11-05T03:04:39.736Z,11.80
2017-11-05T03:07:07.219Z,12.07
2017-11-05T03:09:35.542Z,9.20
2017-11-05T03:12:03.771Z,11.90
2017-11-05T03:14:31.279Z,9.63
2017-11-05T03:16:58.743Z,17.33
2017-11-05T03:19:26.301Z,11.50
2017-11-05T03:21:55.462Z,10.80
2017-11-05T03:24:22.948Z,8.13
2017-11-05T03:26:50.447Z,9.30
2017-11-05T03:29:18.063Z,9.60
2017-11-05T03:31:46.317Z,10.83
2017-11-05T03:34:13.805Z,7.97
2017-11-05T03:36:41.376Z,12.07
2017-11-05T03:39:08.826Z,9.37
2017-11-05T03:41:37.059Z,11.43
2017-11-05T03:44:04.601Z,10.67
2017-11-05T03:46:32.919Z,8.60
2017-11-05T03:49:01.235Z,10.13
2017-11-05T03:51:28.721Z,10.37
2017-11-05T03:53:56.188Z,10.47
2017-11-05T03:56:24.495Z,9.70
2017-11-05T03:58:52.113Z,10.90
2017-11-05T04:01:19.582Z,15.60
2017-11-05T04:03:47.062Z,12.50
2017-11-05T04:06:14.610Z,10.43
2017-11-05T04:08:42.097Z,15.17
2017-11-05T04:11:09.619Z,11.17
2017-11-05T04:13:37.207Z,12.03
2017-11-05T04:16:04.675Z,12.87
2017-11-05T04:18:32.135Z,11.60
2017-11-05T04:20:59.702Z,15.13
2017-11-05T04:23:27.187Z,12.27
2017-11-05T04:25:54.653Z,13.80
2017-11-05T04:28:22.219Z,13.77
2017-11-05T04:30:50.456Z,10.30
2017-11-05T04:33:17.949Z,11.73
2017-11-05T04:35:45.493Z,11.37
2017-11-05T04:38:13.757Z,12.80
2017-11-05T04:40:41.211Z,13.83
2017-11-05T04:43:08.754Z,11.40
2017-11-05T04:45:36.223Z,12.33
2017-11-05T04:48:03.702Z,13.87
2017-11-05T04:50:31.274Z,11.13
2017-11-05T04:52:58.796Z,12.40
2017-11-05T04:55:26.269Z,11.90
2017-11-05T04:57:53.830Z,11.43
2017-11-05T05:00:22.093Z,10.57
2017-11-05T05:02:50.355Z,9.50
2017-11-05T05:05:17.912Z,14.67
2017-11-05T05:07:45.397Z,11.87
2017-11-05T05:10:12.869Z,10.20
2017-11-05T05:12:40.437Z,10.97
2017-11-05T05:15:08.680Z,11.43
2017-11-05T05:17:36.143Z,17.37
2017-11-05T05:20:03.703Z,11.07
2017-11-05T05:22:31.181Z,12.83
2017-11-05T05:24:59.479Z,13.37
2017-11-05T05:27:27.814Z,11.70
2017-11-05T05:29:55.279Z,12.53
2017-11-05T05:32:22.745Z,10.90
2017-11-05T05:34:51.422Z,13.93
2017-11-05T05:37:18.895Z,10.40
2017-11-05T05:39:46.349Z,11.53
2017-11-05T05:42:13.899Z,15.57
2017-11-05T05:44:41.368Z,14.47
2017-11-05T05:47:08.866Z,15.97
2017-11-05T05:49:36.438Z,14.53
2017-11-05T05:52:03.889Z,13.63
2017-11-05T05:54:31.352Z,11.20
2017-11-05T05:56:59.823Z,10.30
2017-11-05T05:59:27.355Z,12.70
2017-11-05T06:01:54.815Z,12.63
2017-11-05T06:04:23.305Z,12.73
2017-11-05T06:06:50.770Z,13.17
2017-11-05T06:09:18.232Z,11.03
2017-11-05T06:11:45.800Z,14.93
2017-11-05T06:14:13.257Z,12.67
2017-11-05T06:16:41.482Z,10.20
2017-11-05T06:19:09.014Z,12.97
2017-11-05T06:21:36.616Z,12.13
2017-11-05T06:24:04.163Z,10.47
2017-11-05T06:26:31.676Z,10.33
2017-11-05T06:28:59.158Z,11.30
2017-11-05T06:31:26.712Z,10.07
2017-11-05T06:33:54.945Z,9.33
2017-11-05T06:36:22.409Z,12.27
2017-11-05T06:38:51.079Z,10.33
2017-11-05T06:41:18.624Z,10.40
2017-11-05T06:43:46.248Z,10.07
2017-11-05T06:46:14.118Z,9.90
2017-11-05T06:48:41.624Z,11.73
2017-11-05T06:51:09.091Z,13.77
2017-11-05T06:53:36.609Z,11.00
2017-11-05T06:56:04.084Z,15.27
2017-11-05T06:58:31.615Z,11.60
2017-11-05T07:00:59.864Z,12.30
2017-11-05T07:03:27.480Z,10.63
2017-11-05T07:05:54.943Z,10.23
2017-11-05T07:08:22.415Z,10.73
2017-11-05T07:10:50.091Z,7.90
2017-11-05T07:13:17.572Z,13.83
2017-11-05T07:15:45.061Z,11.60
2017-11-05T07:18:12.644Z,11.37
2017-11-05T07:20:40.169Z,10.50
2017-11-05T07:23:07.647Z,9.60
2017-11-05T07:25:35.222Z,10.23
2017-11-05T07:28:02.773Z,13.13
2017-11-05T07:30:30.269Z,12.10
2017-11-05T07:32:58.330Z,11.97
2017-11-05T07:35:25.885Z,11.80
2017-11-05T07:37:53.388Z,12.67
2017-11-05T07:40:20.966Z,13.07
2017-11-05T07:42:48.444Z,11.83
2017-11-05T07:45:15.955Z,10.80
2017-11-05T07:47:43.976Z,11.87
2017-11-05T07:50:12.315Z,11.37
2017-11-05T07:52:39.782Z,13.30
2017-11-05T07:55:07.738Z,14.00
2017-11-05T07:57:35.271Z,14.60
2017-11-05T08:00:02.740Z,15.13
2017-11-05T08:02:31.069Z,12.53
2017-11-05T08:04:58.533Z,15.97
2017-11-05T08:07:26.163Z,15.60
2017-11-05T08:09:53.738Z,15.67
2017-11-05T08:12:21.980Z,11.83
2017-11-05T08:14:49.467Z,10.37
2017-11-05T08:17:17.071Z,11.43
2017-11-05T08:19:45.328Z,11.30
2017-11-05T08:22:12.897Z,12.83
2017-11-05T08:24:40.466Z,12.97
2017-11-05T08:27:07.977Z,12.33
2017-11-05T08:29:35.488Z,11.93
2017-11-05T08:32:03.069Z,10.60
2017-11-05T08:34:30.672Z,15.70
2017-11-05T08:36:58.152Z,14.00
2017-11-05T08:39:25.863Z,16.80
2017-11-05T08:41:53.360Z,17.27
2017-11-05T08:44:21.615Z,14.50
2017-11-05T08:46:49.178Z,15.90
2017-11-05T08:49:16.672Z,19.80
2017-11-05T08:51:44.165Z,20.90
2017-11-05T08:54:11.728Z,19.10
2017-11-05T08:56:39.198Z,21.50
2017-11-05T08:59:07.435Z,24.03
2017-11-05T09:01:35.284Z,21.37
2017-11-05T09:04:02.879Z,21.93
2017-11-05T09:06:30.404Z,25.03
2017-11-05T09:08:57.969Z,29.60
2017-11-05T09:11:26.263Z,25.70
2017-11-05T09:13:54.514Z,26.30
2017-11-05T09:16:22.045Z,27.90
2017-11-05T09:18:49.505Z,22.60
2017-11-05T09:21:17.420Z,26.37
2017-11-05T09:23:44.899Z,29.43
2017-11-05T09:26:12.377Z,26.30
2017-11-05T09:28:39.903Z,27.63
2017-11-05T09:31:07.377Z,21.50
2017-11-05T09:33:35.205Z,26.33
2017-11-05T09:36:02.691Z,26.57
2017-11-05T09:38:30.921Z,26.63
2017-11-05T09:40:58.880Z,28.33
2017-11-05T09:43:27.115Z,32.03
2017-11-05T09:45:54.592Z,24.37
2017-11-05T09:48:22.189Z,28.33
2017-11-05T09:50:49.682Z,26.30
2017-11-05T09:53:17.164Z,21.97
2017-11-05T09:55:44.729Z,27.50
2017-11-05T09:58:12.442Z,22.10
2017-11-05T10:00:39.969Z,22.30
2017-11-05T10:03:07.624Z,22.43
2017-11-05T10:05:35.200Z,26.27
2017-11-05T10:08:02.844Z,31.40
2017-11-05T10:10:31.087Z,28.83
2017-11-05T10:12:58.596Z,24.60
2017-11-05T10:15:26.081Z,26.73
2017-11-05T10:17:53.623Z,25.40
2017-11-05T10:20:21.181Z,24.00
2017-11-05T10:22:49.507Z,23.30
2017-11-05T10:25:16.979Z,24.80
2017-11-05T10:27:45.342Z,25.87
2017-11-05T10:30:12.853Z,27.43
2017-11-05T10:32:40.389Z,32.00
2017-11-05T10:35:08.038Z,23.67
2017-11-05T10:37:35.522Z,22.87
2017-11-05T10:40:03.775Z,27.63
2017-11-05T10:42:31.497Z,27.93
2017-11-05T10:44:59.027Z,28.97
2017-11-05T10:47:26.529Z,24.80
2017-11-05T10:49:54.106Z,26.47
2017-11-05T10:52:21.575Z,25.43
2017-11-05T10:54:49.068Z,26.27
2017-11-05T10:57:16.666Z,28.50
2017-11-05T10:59:44.315Z,26.57
2017-11-05T11:02:12.614Z,27.43
2017-11-05T11:04:41.157Z,28.90
2017-11-05T11:07:08.626Z,28.63
2017-11-05T11:09:36.386Z,32.77
2017-11-05T11:12:04.733Z,30.60
2017-11-05T11:14:32.312Z,28.53
2017-11-05T11:16:59.792Z,27.80
2017-11-05T11:19:27.354Z,29.73
2017-11-05T11:21:55.601Z,27.47
2017-11-05T11:24:23.163Z,26.10
2017-11-05T11:26:51.406Z,28.20
2017-11-05T11:29:18.884Z,28.07
2017-11-05T11:31:46.428Z,30.07
2017-11-05T11:34:13.899Z,35.23
2017-11-05T11:36:42.784Z,27.07
2017-11-05T11:39:10.245Z,28.60
2017-11-05T11:41:37.721Z,26.87
2017-11-05T11:44:05.326Z,30.93
2017-11-05T11:46:32.829Z,26.50
2017-11-05T11:49:00.304Z,27.70
2017-11-05T11:51:27.990Z,27.03
2017-11-05T11:53:55.498Z,30.63
2017-11-05T11:56:22.984Z,25.47
2017-11-05T11:58:50.616Z,28.00
2017-11-05T12:01:18.922Z,25.23
2017-11-05T12:03:46.429Z,26.63
2017-11-05T12:06:14.141Z,31.70
2017-11-05T12:08:41.616Z,25.67
2017-11-05T12:11:09.114Z,26.47
2017-11-05T12:13:37.633Z,27.23
2017-11-05T12:16:05.099Z,22.97
2017-11-05T12:18:32.659Z,29.03
2017-11-05T12:21:00.191Z,21.50
2017-11-05T12:23:27.705Z,23.43
2017-11-05T12:25:55.273Z,17.93
2017-11-05T12:28:23.521Z,20.70
2017-11-05T12:30:51.030Z,19.73
2017-11-05T12:33:18.555Z,19.00
2017-11-05T12:35:46.040Z,18.17
2017-11-05T12:38:13.596Z,19.07
2017-11-05T12:40:41.103Z,19.70
2017-11-05T12:43:09.331Z,22.77
2017-11-05T12:45:36.921Z,19.80
2017-11-05T12:48:04.422Z,18.17
2017-11-05T12:50:31.999Z,23.23
2017-11-05T12:52:59.784Z,18.57
2017-11-05T12:55:27.449Z,19.50
2017-11-05T12:57:54.924Z,19.00
2017-11-05T13:00:22.441Z,23.50
2017-11-05T13:02:49.909Z,21.40
2017-11-05T13:05:17.546Z,22.37
2017-11-05T13:07:45.111Z,20.83
2017-11-05T13:10:12.583Z,37.07
2017-11-05T13:12:40.074Z,27.53
2017-11-05T13:15:07.656Z,29.77
2017-11-05T13:17:35.162Z,28.13
2017-11-05T13:20:02.637Z,25.13
2017-11-05T13:22:30.205Z,29.80
2017-11-05T13:24:57.673Z,24.53
2017-11-05T13:27:25.187Z,30.03
2017-11-05T13:29:52.774Z,22.17
2017-11-05T13:32:20.272Z,15.13
2017-11-05T13:34:47.737Z,12.90
2017-11-05T13:37:15.362Z,10.97
2017-11-05T13:39:42.829Z,10.23
2017-11-05T13:42:10.304Z,9.97
2017-11-05T13:44:37.887Z,9.70
2017-11-05T13:47:05.382Z,10.47
2017-11-05T13:49:32.973Z,12.40
2017-11-05T13:52:00.455Z,9.13
2017-11-05T13:54:27.933Z,9.20
2017-11-05T13:56:55.496Z,14.90
2017-11-05T13:59:22.966Z,10.97
2017-11-05T14:01:51.226Z,6.90
2017-11-05T14:04:18.764Z,8.27
2017-11-05T14:06:46.252Z,8.30
2017-11-05T14:09:13.829Z,8.67
2017-11-05T14:11:41.312Z,7.10
2017-11-05T14:14:09.549Z,11.07
2017-11-05T14:16:37.294Z,5.97
2017-11-05T14:19:04.776Z,8.33
2017-11-05T14:21:32.371Z,6.43
2017-11-05T14:23:59.852Z,6.00
2017-11-05T14:26:27.336Z,4.63
2017-11-05T14:28:54.983Z,3.87
2017-11-05T14:31:22.510Z,5.00
2017-11-05T14:33:49.989Z,4.40
2017-11-05T14:36:17.537Z,2.07
2017-11-05T14:38:45.045Z,3.80
2017-11-05T14:41:12.531Z,3.20
2017-11-05T14:43:40.152Z,5.03
2017-11-05T14:46:07.807Z,3.90
2017-11-05T14:48:35.312Z,4.50
2017-11-05T14:51:02.937Z,3.13
2017-11-05T14:53:31.182Z,3.37
2017-11-05T14:55:58.711Z,7.10
2017-11-05T14:58:26.240Z,2.83
2017-11-05T15:00:53.760Z,4.27
2017-11-05T15:03:21.308Z,5.77
2017-11-05T15:05:48.783Z,3.10
2017-11-05T15:08:16.315Z,2.57
2017-11-05T15:10:43.869Z,2.17
2017-11-05T15:13:11.452Z,2.00
2017-11-05T15:15:39.012Z,4.73
2017-11-05T15:18:06.662Z,2.60
2017-11-05T15:20:34.165Z,2.07
2017-11-05T15:23:01.635Z,2.53
2017-11-05T15:25:29.213Z,3.10
2017-11-05T15:27:56.777Z,4.60
2017-11-05T15:30:24.255Z,5.40
2017-11-05T15:32:51.739Z,5.03
2017-11-05T15:35:20.089Z,3.70
2017-11-05T15:37:47.565Z,4.40
2017-11-05T15:40:15.094Z,2.90
2017-11-05T15:42:42.745Z,5.90
2017-11-05T15:45:10.252Z,2.80
2017-11-05T15:47:37.778Z,4.60
2017-11-05T15:50:06.457Z,1.70
2017-11-05T15:52:33.981Z,4.83
2017-11-05T15:55:01.522Z,3.27
2017-11-05T15:57:29.083Z,2.07
2017-11-05T15:59:56.561Z,3.43
2017-11-05T16:02:24.123Z,3.83
2017-11-05T16:04:52.371Z,4.60
2017-11-05T16:07:19.883Z,5.30
2017-11-05T16:09:47.447Z,2.93
2017-11-05T16:12:14.898Z,2.80
2017-11-05T16:14:43.319Z,4.17
2017-11-05T16:17:12.568Z,6.67
2017-11-05T16:19:40.125Z,5.70
2017-11-05T16:22:08.388Z,4.60
2017-11-05T16:24:36.218Z,5.57
2017-11-05T16:27:03.752Z,3.07
2017-11-05T16:29:31.212Z,3.93
2017-11-05T16:31:58.761Z,4.90
2017-11-05T16:34:26.250Z,3.20
2017-11-05T16:36:53.831Z,4.40
2017-11-05T16:39:21.379Z,3.50
2017-11-05T16:41:49.633Z,3.50
2017-11-05T16:44:17.118Z,2.80
2017-11-05T16:46:44.646Z,2.87
2017-11-05T16:49:12.903Z,3.93
2017-11-05T16:51:41.599Z,4.43
2017-11-05T16:54:09.077Z,2.60
2017-11-05T16:56:36.590Z,3.90
2017-11-05T16:59:04.123Z,7.70
2017-11-05T17:01:32.478Z,4.37
2017-11-05T17:04:00.055Z,7.23
2017-11-05T17:06:27.570Z,4.40
2017-11-05T17:08:55.058Z,1.97
2017-11-05T17:11:22.638Z,2.33
2017-11-05T17:13:50.129Z,4.03
2017-11-05T17:16:17.599Z,3.50
2017-11-05T17:18:45.258Z,2.57
2017-11-05T17:21:13.478Z,2.43
2017-11-05T17:23:40.986Z,3.53
2017-11-05T17:26:08.563Z,3.97
2017-11-05T17:28:36.052Z,4.03
2017-11-05T17:31:03.517Z,5.20
2017-11-05T17:33:31.852Z,4.50
2017-11-05T17:35:59.352Z,4.80
2017-11-05T17:38:26.828Z,5.20
2017-11-05T17:40:54.318Z,5.13
2017-11-05T17:43:21.787Z,3.73
2017-11-05T17:45:50.039Z,5.20
2017-11-05T17:48:17.528Z,4.57
2017-11-05T17:50:44.982Z,6.17
2017-11-05T17:53:12.461Z,5.03
2017-11-05T17:55:40.701Z,4.90
2017-11-05T17:58:08.239Z,6.20
2017-11-05T18:00:36.592Z,5.37
2017-11-05T18:03:04.148Z,5.13
2017-11-05T18:05:31.609Z,6.57
2017-11-05T18:07:59.100Z,8.20
2017-11-05T18:10:27.375Z,5.87
2017-11-05T18:12:54.887Z,5.00
2017-11-05T18:15:22.414Z,7.00
2017-11-05T18:17:49.893Z,8.13
2017-11-05T18:20:17.388Z,6.73
2017-11-05T18:22:44.905Z,5.20
2017-11-05T18:25:12.363Z,8.37
2017-11-05T18:27:40.261Z,7.97
2017-11-05T18:30:07.763Z,6.80
2017-11-05T18:32:36.159Z,7.07
2017-11-05T18:35:04.444Z,6.60
2017-11-05T18:37:32.658Z,9.73
2017-11-05T18:40:00.152Z,9.37
2017-11-05T18:42:27.659Z,10.23
2017-11-05T18:44:55.130Z,7.97
2017-11-05T18:47:22.603Z,7.43
2017-11-05T18:49:50.102Z,8.47
2017-11-05T18:52:17.575Z,8.90
2017-11-05T18:54:45.082Z,11.23
2017-11-05T18:57:13.350Z,13.10
2017-11-05T18:59:40.991Z,10.13
2017-11-05T19:02:09.231Z,8.70
2017-11-05T19:04:36.739Z,10.40
2017-11-05T19:07:04.208Z,13.10
2017-11-05T19:09:31.700Z,9.63
2017-11-05T19:11:59.202Z,10.20
2017-11-05T19:14:26.682Z,10.57
2017-11-05T19:16:54.169Z,12.40
2017-11-05T19:19:21.698Z,11.77
2017-11-05T19:21:49.252Z,11.80
2017-11-05T19:24:16.799Z,8.93
2017-11-05T19:26:44.347Z,9.97
2017-11-05T19:29:11.865Z,12.97
2017-11-05T19:31:39.367Z,8.83
2017-11-05T19:34:06.843Z,9.43
2017-11-05T19:36:34.392Z,12.10
2017-11-05T19:39:01.887Z,11.10
2017-11-05T19:41:29.449Z,11.73
2017-11-05T19:43:56.922Z,9.97
2017-11-05T19:46:25.184Z,10.57
2017-11-05T19:48:52.677Z,10.13
2017-11-05T19:51:20.158Z,11.40
2017-11-05T19:53:47.642Z,13.90
2017-11-05T19:56:15.141Z,15.00
2017-11-05T19:58:42.632Z,18.33
2017-11-05T20:01:10.127Z,14.87
2017-11-05T20:03:37.669Z,15.57
2017-11-05T20:06:05.180Z,15.70
2017-11-05T20:08:32.680Z,15.60
2017-11-05T20:11:00.226Z,15.60
2017-11-05T20:13:27.851Z,19.20
2017-11-05T20:15:55.386Z,19.20
2017-11-05T20:18:22.918Z,21.53
2017-11-05T20:20:50.446Z,22.70
2017-11-05T20:23:18.942Z,20.17
2017-11-05T20:25:46.444Z,23.60
2017-11-05T20:28:13.951Z,18.47
2017-11-05T20:30:41.742Z,20.97
2017-11-05T20:33:09.232Z,25.33
2017-11-05T20:35:36.758Z,31.67
2017-11-05T20:38:05.065Z,30.37
2017-11-05T20:40:33.337Z,27.87
2017-11-05T20:43:00.821Z,26.67
2017-11-05T20:45:28.376Z,23.80
2017-11-05T20:47:55.907Z,27.50
2017-11-05T20:50:24.198Z,24.97
2017-11-05T20:52:51.890Z,29.10
2017-11-05T20:55:20.153Z,30.90
2017-11-05T20:57:47.790Z,27.20
2017-11-05T21:00:15.304Z,30.07
2017-11-05T21:02:42.823Z,29.93
2017-11-05T21:05:10.389Z,36.30
2017-11-05T21:07:37.936Z,30.90
2017-11-05T21:10:06.240Z,28.90
2017-11-05T21:12:36.000Z,28.03
2017-11-05T21:15:04.274Z,28.13
2017-11-05T21:17:33.494Z,29.20
2017-11-05T21:20:01.762Z,33.87
2017-11-05T21:22:29.250Z,29.63
2017-11-05T21:24:57.633Z,32.67
2017-11-05T21:27:25.111Z,31.47
2017-11-05T21:29:52.700Z,30.50
2017-11-05T21:32:21.017Z,31.90
2017-11-05T21:34:48.544Z,29.53
2017-11-05T21:37:16.773Z,35.97
2017-11-05T21:39:45.098Z,36.43
2017-11-05T21:42:12.594Z,34.30
2017-11-05T21:44:40.165Z,32.57
2017-11-05T21:47:07.631Z,32.20
2017-11-05T21:49:36.115Z,34.37
2017-11-05T21:52:04.353Z,32.00
2017-11-05T21:54:31.861Z,33.03
2017-11-05T21:57:00.544Z,34.83
2017-11-05T21:59:28.096Z,37.47
2017-11-05T22:01:56.353Z,26.00
2017-11-05T22:04:23.909Z,30.80
2017-11-05T22:06:51.371Z,36.27
2017-11-05T22:09:18.828Z,35.23
2017-11-05T22:11:46.367Z,31.33
2017-11-05T22:14:14.705Z,29.40
2017-11-05T22:16:42.179Z,30.63
2017-11-05T22:19:09.695Z,38.30
2017-11-05T22:21:38.187Z,38.70
2017-11-05T22:24:05.649Z,36.83
2017-11-05T22:26:33.225Z,36.20
2017-11-05T22:29:00.752Z,37.23
2017-11-05T22:31:29.020Z,36.00
2017-11-05T22:33:56.594Z,32.53
2017-11-05T22:36:24.081Z,32.90
2017-11-05T22:38:51.564Z,31.97
2017-11-05T22:41:19.135Z,37.07
2017-11-05T22:43:46.616Z,33.77
2017-11-05T22:46:14.878Z,32.13
2017-11-05T22:48:43.226Z,36.20
2017-11-05T22:51:10.709Z,30.50
2017-11-05T22:53:38.316Z,35.80
2017-11-05T22:56:05.797Z,28.60
2017-11-05T22:58:33.283Z,32.70
2017-11-05T23:01:01.830Z,32.60
2017-11-05T23:03:30.077Z,29.53
2017-11-05T23:05:57.565Z,34.30
2017-11-05T23:08:25.121Z,37.97
2017-11-05T23:10:53.353Z,40.00
2017-11-05T23:13:20.832Z,41.97
2017-11-05T23:15:48.394Z,34.37
2017-11-05T23:18:15.855Z,38.50
2017-11-05T23:20:43.331Z,36.00
2017-11-05T23:23:11.593Z,32.63
2017-11-05T23:25:39.070Z,36.30
2017-11-05T23:28:07.475Z,35.80
2017-11-05T23:30:34.946Z,37.33
2017-11-05T23:33:03.254Z,34.43
2017-11-05T23:35:30.740Z,33.27
2017-11-05T23:37:58.340Z,31.07
2017-11-05T23:40:25.791Z,39.63
2017-11-05T23:42:54.058Z,28.73
2017-11-05T23:45:22.300Z,31.63
2017-11-05T23:47:49.794Z,30.23
2017-11-05T23:50:17.333Z,33.23
2017-11-05T23:52:44.804Z,28.53
2017-11-05T23:55:13.041Z,34.73
2017-11-05T23:57:41.301Z,29.47
